createdAt,value
2023-03-07T00:00:54.036Z,36.13
2023-03-07T00:03:21.046Z,43.28
2023-03-07T00:05:47.667Z,36.20
2023-03-07T00:08:14.239Z,41.45
2023-03-07T00:10:40.865Z,51.90
2023-03-07T00:13:08.879Z,52.22
2023-03-07T00:15:37.870Z,48.10
2023-03-07T00:18:04.923Z,40.63
2023-03-07T00:20:31.527Z,42.75
2023-03-07T00:22:58.113Z,40.75
2023-03-07T00:25:24.634Z,44.47
2023-03-07T00:27:51.252Z,42.80
2023-03-07T00:30:17.917Z,44.85
2023-03-07T00:32:44.444Z,39.03
2023-03-07T00:35:11.000Z,41.15
2023-03-07T00:37:37.516Z,39.22
2023-03-07T00:40:06.234Z,37.60
2023-03-07T00:42:32.857Z,34.00
2023-03-07T00:44:59.393Z,44.22
2023-03-07T00:47:25.904Z,38.03
2023-03-07T00:49:52.466Z,35.88
2023-03-07T00:52:19.082Z,38.35
2023-03-07T00:54:45.673Z,38.90
2023-03-07T00:57:12.230Z,46.05
2023-03-07T00:59:38.825Z,36.20
2023-03-07T01:02:05.657Z,43.45
2023-03-07T01:04:32.339Z,41.47
2023-03-07T01:06:58.893Z,42.03
2023-03-07T01:09:25.455Z,41.70
2023-03-07T01:11:52.078Z,41.83
2023-03-07T01:14:18.632Z,40.55
2023-03-07T01:16:45.263Z,54.63
2023-03-07T01:19:12.836Z,43.90
2023-03-07T01:21:42.690Z,43.13
2023-03-07T01:24:14.138Z,42.67
2023-03-07T01:26:40.860Z,43.05
2023-03-07T01:29:08.963Z,40.37
2023-03-07T01:31:35.752Z,40.47
2023-03-07T01:34:02.955Z,46.13
2023-03-07T01:36:33.278Z,39.37
2023-03-07T01:39:05.068Z,44.97
2023-03-07T01:41:32.497Z,44.30
2023-03-07T01:44:05.399Z,46.70
2023-03-07T01:46:43.240Z,47.77
2023-03-07T01:49:24.907Z,50.03
2023-03-07T01:51:58.315Z,56.00
2023-03-07T01:54:26.388Z,56.73
2023-03-07T01:56:53.565Z,57.03
2023-03-07T01:59:29.106Z,57.73
2023-03-07T02:01:57.797Z,54.17
2023-03-07T02:04:32.397Z,58.50
2023-03-07T02:07:02.700Z,52.15
2023-03-07T02:09:31.338Z,52.33
2023-03-07T02:12:00.607Z,53.60
2023-03-07T02:14:27.569Z,51.27
2023-03-07T02:16:54.548Z,52.47
2023-03-07T02:19:33.314Z,57.80
2023-03-07T02:22:09.629Z,46.80
2023-03-07T02:24:48.782Z,56.63
2023-03-07T02:27:15.492Z,52.10
2023-03-07T02:29:42.523Z,50.87
2023-03-07T02:32:09.426Z,48.73
2023-03-07T02:34:36.256Z,41.17
2023-03-07T02:37:11.886Z,52.90
2023-03-07T02:39:44.163Z,44.00
2023-03-07T02:42:18.745Z,46.27
2023-03-07T02:44:46.816Z,45.17
2023-03-07T02:47:14.035Z,46.80
2023-03-07T02:49:40.650Z,48.70
2023-03-07T02:52:07.238Z,43.97
2023-03-07T02:54:33.820Z,39.70
2023-03-07T02:57:00.438Z,49.70
2023-03-07T02:59:27.032Z,40.60
2023-03-07T03:01:53.792Z,41.33
2023-03-07T03:04:20.358Z,47.13
2023-03-07T03:06:46.914Z,52.63
2023-03-07T03:09:13.749Z,43.67
2023-03-07T03:11:40.387Z,42.50
2023-03-07T03:14:06.975Z,40.90
2023-03-07T03:16:33.577Z,43.97
2023-03-07T03:19:00.364Z,44.10
2023-03-07T03:21:27.100Z,47.13
2023-03-07T03:23:53.679Z,40.23
2023-03-07T03:26:20.192Z,43.73
2023-03-07T03:28:46.780Z,43.70
2023-03-07T03:31:16.681Z,43.50
2023-03-07T03:33:44.646Z,56.23
2023-03-07T03:36:14.752Z,43.30
2023-03-07T03:38:41.672Z,44.60
2023-03-07T03:41:11.390Z,42.80
2023-03-07T03:43:38.009Z,39.03
2023-03-07T03:46:04.921Z,42.80
2023-03-07T03:48:31.536Z,46.30
2023-03-07T03:51:12.201Z,45.73
2023-03-07T03:53:40.069Z,42.77
2023-03-07T03:56:10.016Z,43.10
2023-03-07T03:58:36.740Z,40.57
2023-03-07T04:01:05.899Z,39.80
2023-03-07T04:03:34.240Z,39.90
2023-03-07T04:06:06.457Z,44.63
2023-03-07T04:08:34.239Z,43.77
2023-03-07T04:11:01.426Z,42.33
2023-03-07T04:13:28.577Z,32.07
2023-03-07T04:15:55.085Z,37.00
2023-03-07T04:18:22.725Z,33.90
2023-03-07T04:20:50.746Z,40.83
2023-03-07T04:23:18.826Z,41.67
2023-03-07T04:25:55.946Z,38.00
2023-03-07T04:28:24.764Z,39.37
2023-03-07T04:30:53.162Z,38.37
2023-03-07T04:33:20.562Z,36.83
2023-03-07T04:35:47.263Z,38.27
2023-03-07T04:38:15.707Z,39.97
2023-03-07T04:40:42.275Z,47.27
2023-03-07T04:43:08.816Z,34.90
2023-03-07T04:45:39.978Z,35.50
2023-03-07T04:48:06.972Z,35.73
2023-03-07T04:50:33.583Z,35.70
2023-03-07T04:53:00.150Z,41.10
2023-03-07T04:55:26.720Z,40.10
2023-03-07T04:57:53.337Z,37.43
2023-03-07T05:00:20.883Z,38.07
2023-03-07T05:02:48.632Z,47.80
2023-03-07T05:05:16.882Z,42.87
2023-03-07T05:07:44.418Z,39.63
2023-03-07T05:10:11.702Z,45.03
2023-03-07T05:12:38.296Z,44.17
2023-03-07T05:15:05.352Z,39.73
2023-03-07T05:17:31.923Z,46.57
2023-03-07T05:19:58.441Z,43.43
2023-03-07T05:22:25.043Z,43.10
2023-03-07T05:24:52.105Z,44.90
2023-03-07T05:27:18.660Z,49.23
2023-03-07T05:29:45.257Z,42.13
2023-03-07T05:32:11.913Z,40.80
2023-03-07T05:34:38.542Z,46.10
2023-03-07T05:37:05.269Z,43.13
2023-03-07T05:39:31.881Z,40.20
2023-03-07T05:41:58.468Z,39.63
2023-03-07T05:44:24.983Z,40.47
2023-03-07T05:46:52.021Z,37.60
2023-03-07T05:49:18.809Z,37.30
2023-03-07T05:51:45.326Z,48.17
2023-03-07T05:54:11.878Z,43.67
2023-03-07T05:56:38.381Z,40.33
2023-03-07T05:59:07.751Z,36.40
2023-03-07T06:01:34.736Z,40.27
2023-03-07T06:04:01.452Z,35.27
2023-03-07T06:06:28.090Z,42.07
2023-03-07T06:08:54.905Z,35.57
2023-03-07T06:11:21.430Z,41.00
2023-03-07T06:13:47.943Z,47.77
2023-03-07T06:16:14.544Z,38.37
2023-03-07T06:18:41.109Z,44.40
2023-03-07T06:21:09.006Z,46.63
2023-03-07T06:23:36.851Z,50.10
2023-03-07T06:26:04.939Z,41.00
2023-03-07T06:28:32.928Z,39.27
2023-03-07T06:30:59.931Z,52.60
2023-03-07T06:33:26.652Z,46.50
2023-03-07T06:35:53.264Z,50.47
2023-03-07T06:38:19.843Z,44.30
2023-03-07T06:40:55.640Z,45.90
2023-03-07T06:43:22.525Z,47.37
2023-03-07T06:45:49.122Z,48.03
2023-03-07T06:48:15.780Z,37.03
2023-03-07T06:50:42.280Z,39.80
2023-03-07T06:53:08.950Z,42.13
2023-03-07T06:55:35.785Z,39.70
2023-03-07T06:58:02.415Z,43.73
2023-03-07T07:00:29.231Z,36.77
2023-03-07T07:02:56.543Z,41.27
2023-03-07T07:05:23.237Z,43.93
2023-03-07T07:07:49.845Z,43.33
2023-03-07T07:10:16.592Z,40.17
2023-03-07T07:12:43.258Z,39.13
2023-03-07T07:15:10.344Z,37.83
2023-03-07T07:17:38.928Z,38.80
2023-03-07T07:20:06.971Z,32.07
2023-03-07T07:22:34.008Z,33.03
2023-03-07T07:25:00.571Z,38.97
2023-03-07T07:27:28.962Z,36.07
2023-03-07T07:29:55.559Z,35.40
2023-03-07T07:32:22.277Z,31.77
2023-03-07T07:34:48.959Z,35.47
2023-03-07T07:37:15.547Z,42.87
2023-03-07T07:39:43.946Z,36.47
2023-03-07T07:42:11.827Z,32.17
2023-03-07T07:44:38.643Z,35.97
2023-03-07T07:47:05.420Z,37.10
2023-03-07T07:49:32.020Z,38.10
2023-03-07T07:51:58.814Z,38.70
2023-03-07T07:54:25.807Z,38.63
2023-03-07T07:56:52.409Z,38.67
2023-03-07T07:59:19.046Z,31.90
2023-03-07T08:01:45.932Z,34.03
2023-03-07T08:04:12.546Z,32.88
2023-03-07T08:06:39.820Z,34.97
2023-03-07T08:09:06.681Z,36.33
2023-03-07T08:11:33.337Z,36.63
2023-03-07T08:14:02.470Z,29.65
2023-03-07T08:16:29.254Z,36.28
2023-03-07T08:18:57.331Z,31.95
2023-03-07T08:21:25.584Z,28.88
2023-03-07T08:23:56.151Z,35.53
2023-03-07T08:26:23.616Z,34.05
2023-03-07T08:28:50.281Z,39.72
2023-03-07T08:31:25.846Z,35.88
2023-03-07T08:33:53.237Z,37.03
2023-03-07T08:36:20.373Z,39.00
2023-03-07T08:38:54.370Z,33.50
2023-03-07T08:41:22.759Z,36.38
2023-03-07T08:43:49.674Z,33.38
2023-03-07T08:46:16.421Z,30.63
2023-03-07T08:48:43.046Z,31.98
2023-03-07T08:51:12.774Z,31.40
2023-03-07T08:53:39.355Z,33.92
2023-03-07T08:56:07.749Z,30.80
2023-03-07T08:58:34.560Z,32.33
2023-03-07T09:01:01.460Z,31.98
2023-03-07T09:03:28.092Z,30.60
2023-03-07T09:05:54.679Z,34.08
2023-03-07T09:08:21.413Z,37.53
2023-03-07T09:10:48.039Z,37.50
2023-03-07T09:13:15.689Z,41.53
2023-03-07T09:15:42.948Z,31.63
2023-03-07T09:18:10.580Z,31.67
2023-03-07T09:20:40.948Z,31.90
2023-03-07T09:23:08.223Z,37.47
2023-03-07T09:25:36.350Z,36.45
2023-03-07T09:28:04.858Z,29.05
2023-03-07T09:30:31.363Z,43.03
2023-03-07T09:32:58.140Z,36.72
2023-03-07T09:35:25.255Z,28.17
2023-03-07T09:37:51.894Z,30.90
2023-03-07T09:40:23.506Z,32.22
2023-03-07T09:43:19.066Z,33.72
2023-03-07T09:46:10.347Z,34.00
2023-03-07T09:49:06.124Z,34.95
2023-03-07T09:51:40.561Z,30.40
2023-03-07T09:54:21.622Z,31.13
2023-03-07T09:56:57.090Z,29.02
2023-03-07T09:59:41.143Z,28.52
2023-03-07T10:02:19.749Z,22.33
2023-03-07T10:05:21.017Z,21.05
2023-03-07T10:07:47.691Z,24.10
2023-03-07T10:10:40.164Z,17.10
2023-03-07T10:13:21.870Z,20.05
2023-03-07T10:15:52.605Z,23.15
2023-03-07T10:18:38.014Z,22.38
2023-03-07T10:21:33.170Z,20.95
2023-03-07T10:24:09.116Z,21.23
2023-03-07T10:26:47.850Z,21.15
2023-03-07T10:29:18.483Z,16.33
2023-03-07T10:31:52.050Z,18.88
2023-03-07T10:34:29.623Z,15.82
2023-03-07T10:37:16.698Z,24.83
2023-03-07T10:39:50.207Z,11.98
2023-03-07T10:42:19.076Z,13.43
2023-03-07T10:44:48.915Z,17.00
2023-03-07T10:47:26.862Z,20.52
2023-03-07T10:50:00.393Z,12.32
2023-03-07T10:52:39.715Z,14.90
2023-03-07T10:55:33.498Z,18.02
2023-03-07T10:58:32.361Z,17.90
2023-03-07T11:01:08.185Z,11.32
2023-03-07T11:03:58.711Z,17.98
2023-03-07T11:06:40.281Z,15.07
2023-03-07T11:09:27.866Z,17.27
2023-03-07T11:11:59.862Z,19.65
2023-03-07T11:14:28.842Z,15.45
2023-03-07T11:16:59.252Z,15.82
2023-03-07T11:19:42.052Z,18.23
2023-03-07T11:22:34.285Z,20.60
2023-03-07T11:25:10.711Z,14.30
2023-03-07T11:27:46.850Z,15.30
2023-03-07T11:30:20.880Z,17.95
2023-03-07T11:33:02.887Z,13.48
2023-03-07T11:35:43.064Z,18.40
2023-03-07T11:38:34.348Z,18.17
2023-03-07T11:41:11.772Z,15.93
2023-03-07T11:43:56.726Z,15.30
2023-03-07T11:46:55.117Z,17.02
2023-03-07T11:49:59.537Z,16.30
2023-03-07T11:53:08.717Z,16.27
2023-03-07T11:56:05.125Z,16.23
2023-03-07T11:59:07.065Z,22.83
2023-03-07T12:01:59.279Z,16.10
2023-03-07T12:04:37.763Z,20.08
2023-03-07T12:07:19.462Z,23.42
2023-03-07T12:09:55.184Z,23.98
2023-03-07T12:12:39.756Z,23.95
2023-03-07T12:15:39.012Z,29.05
2023-03-07T12:18:18.096Z,35.25
2023-03-07T12:20:47.574Z,35.03
2023-03-07T12:23:20.176Z,37.60
2023-03-07T12:25:52.541Z,41.15
2023-03-07T12:28:32.641Z,38.33
2023-03-07T12:31:26.942Z,37.38
2023-03-07T12:33:59.543Z,38.55
2023-03-07T12:36:45.066Z,46.22
2023-03-07T12:39:42.512Z,45.42
2023-03-07T12:42:35.129Z,45.40
2023-03-07T12:45:11.352Z,49.25
2023-03-07T12:47:50.489Z,48.92
2023-03-07T12:50:41.507Z,46.85
2023-03-07T12:53:38.041Z,48.95
2023-03-07T12:56:16.701Z,43.78
2023-03-07T12:58:59.314Z,41.83
2023-03-07T13:01:37.088Z,41.40
2023-03-07T13:04:06.478Z,42.03
2023-03-07T13:06:34.448Z,49.08
2023-03-07T13:09:04.086Z,48.85
2023-03-07T13:11:34.308Z,49.35
2023-03-07T13:14:05.402Z,46.00
2023-03-07T13:16:46.673Z,50.40
2023-03-07T13:19:35.294Z,47.42
2023-03-07T13:22:21.782Z,52.78
2023-03-07T13:24:49.791Z,50.60
2023-03-07T13:27:30.843Z,52.58
2023-03-07T13:30:12.537Z,49.47
2023-03-07T13:32:48.434Z,48.50
2023-03-07T13:35:36.918Z,52.38
2023-03-07T13:38:15.507Z,48.92
2023-03-07T13:40:45.052Z,50.03
2023-03-07T13:43:54.624Z,62.50
2023-03-07T13:46:42.264Z,60.85
2023-03-07T13:49:08.821Z,60.42
2023-03-07T13:51:35.407Z,66.60
2023-03-07T13:54:11.563Z,60.40
2023-03-07T13:56:42.320Z,56.65
2023-03-07T13:59:14.657Z,69.40
2023-03-07T14:01:55.831Z,70.03
2023-03-07T14:04:39.472Z,60.42
2023-03-07T14:07:26.285Z,57.80
2023-03-07T14:10:21.801Z,68.68
2023-03-07T14:13:07.819Z,65.53
2023-03-07T14:15:52.451Z,59.50
2023-03-07T14:18:43.781Z,63.25
2023-03-07T14:21:38.656Z,66.53
2023-03-07T14:24:11.052Z,65.32
2023-03-07T14:26:50.201Z,68.43
2023-03-07T14:29:22.236Z,68.38
2023-03-07T14:31:51.437Z,68.55
2023-03-07T14:34:24.098Z,61.45
2023-03-07T14:36:55.928Z,63.63
2023-03-07T14:39:23.829Z,74.07
2023-03-07T14:42:07.388Z,73.05
2023-03-07T14:44:45.648Z,65.95
2023-03-07T14:47:47.348Z,72.47
2023-03-07T14:50:20.337Z,66.40
2023-03-07T14:52:48.348Z,64.88
2023-03-07T14:55:21.426Z,70.57
2023-03-07T14:57:53.118Z,66.40
2023-03-07T15:00:29.622Z,75.85
2023-03-07T15:02:57.573Z,65.28
2023-03-07T15:05:27.744Z,66.80
2023-03-07T15:07:55.113Z,59.95
2023-03-07T15:10:37.759Z,54.42
2023-03-07T15:13:07.821Z,54.03
2023-03-07T15:15:48.956Z,51.72
2023-03-07T15:18:27.472Z,53.50
2023-03-07T15:20:56.588Z,56.00
2023-03-07T15:23:27.605Z,56.65
2023-03-07T15:26:02.040Z,56.25
2023-03-07T15:28:33.599Z,59.10
2023-03-07T15:31:00.806Z,59.10
2023-03-07T15:33:30.754Z,56.00
2023-03-07T15:36:12.391Z,55.30
2023-03-07T15:38:41.453Z,55.70
2023-03-07T15:41:26.536Z,62.03
2023-03-07T15:46:51.175Z,59.92
2023-03-07T15:49:26.061Z,72.15
2023-03-07T15:51:59.165Z,70.68
2023-03-07T15:54:33.525Z,68.13
2023-03-07T15:57:04.820Z,71.72
2023-03-07T15:59:32.988Z,75.68
2023-03-07T16:02:34.966Z,64.85
2023-03-07T16:05:29.037Z,69.10
2023-03-07T16:07:57.586Z,61.60
2023-03-07T16:10:28.309Z,58.72
2023-03-07T16:12:55.767Z,63.28
2023-03-07T16:15:24.053Z,64.40
2023-03-07T16:17:55.049Z,61.88
2023-03-07T16:20:25.140Z,53.17
2023-03-07T16:22:52.318Z,59.60
2023-03-07T16:25:20.739Z,63.08
2023-03-07T16:27:52.713Z,56.92
2023-03-07T16:30:22.857Z,55.35
2023-03-07T16:32:50.020Z,58.45
2023-03-07T16:35:25.801Z,48.60
2023-03-07T16:37:53.667Z,56.08
2023-03-07T16:40:20.851Z,48.40
2023-03-07T16:42:50.641Z,54.80
2023-03-07T16:45:24.767Z,54.38
2023-03-07T16:47:53.820Z,50.85
2023-03-07T16:50:24.095Z,48.25
2023-03-07T16:52:50.601Z,51.10
2023-03-07T16:55:17.734Z,53.72
2023-03-07T16:57:47.494Z,45.03
2023-03-07T17:00:17.435Z,48.25
2023-03-07T17:02:45.376Z,49.92
2023-03-07T17:05:20.912Z,51.00
2023-03-07T17:07:47.572Z,51.33
2023-03-07T17:10:14.615Z,54.30
2023-03-07T17:12:42.606Z,57.80
2023-03-07T17:15:13.907Z,53.97
2023-03-07T17:17:40.975Z,54.28
2023-03-07T17:20:08.333Z,57.58
2023-03-07T17:22:35.034Z,52.33
2023-03-07T17:25:01.626Z,57.05
2023-03-07T17:27:28.443Z,56.50
2023-03-07T17:29:55.213Z,48.80
2023-03-07T17:32:22.011Z,51.65
2023-03-07T17:34:48.631Z,48.22
2023-03-07T17:37:15.326Z,41.42
2023-03-07T17:39:42.531Z,42.17
2023-03-07T17:42:09.618Z,37.75
2023-03-07T17:44:36.259Z,37.83
2023-03-07T17:47:02.905Z,34.92
2023-03-07T17:49:34.857Z,40.80
2023-03-07T17:52:02.456Z,36.28
2023-03-07T17:54:31.149Z,41.50
2023-03-07T17:56:57.745Z,49.78
2023-03-07T17:59:24.402Z,39.85
2023-03-07T18:01:51.049Z,37.47
2023-03-07T18:04:17.623Z,38.88
2023-03-07T18:06:44.212Z,40.00
2023-03-07T18:09:10.873Z,45.15
2023-03-07T18:11:37.474Z,40.67
2023-03-07T18:14:04.035Z,38.03
2023-03-07T18:16:30.937Z,37.72
2023-03-07T18:19:00.014Z,33.53
2023-03-07T18:21:29.704Z,31.23
2023-03-07T18:23:57.110Z,33.70
2023-03-07T18:26:23.730Z,33.55
2023-03-07T18:28:53.261Z,36.65
2023-03-07T18:31:30.755Z,31.63
2023-03-07T18:33:57.425Z,33.83
2023-03-07T18:36:25.476Z,35.53
2023-03-07T18:38:52.605Z,30.27
2023-03-07T18:41:21.770Z,31.50
2023-03-07T18:43:48.699Z,31.80
2023-03-07T18:46:17.887Z,30.23
2023-03-07T18:48:44.897Z,33.97
2023-03-07T18:51:14.573Z,32.50
2023-03-07T18:53:41.435Z,30.70
2023-03-07T18:56:18.417Z,37.03
2023-03-07T18:58:46.323Z,44.30
2023-03-07T19:01:18.696Z,29.23
2023-03-07T19:03:47.355Z,31.65
2023-03-07T19:06:16.516Z,33.30
2023-03-07T19:08:43.227Z,28.45
2023-03-07T19:11:12.068Z,32.10
2023-03-07T19:13:39.333Z,31.13
2023-03-07T19:16:15.340Z,32.15
2023-03-07T19:18:43.316Z,34.70
2023-03-07T19:21:15.446Z,31.13
2023-03-07T19:23:42.519Z,33.38
2023-03-07T19:26:12.292Z,28.65
2023-03-07T19:28:40.305Z,32.20
2023-03-07T19:31:29.824Z,35.78
2023-03-07T19:33:57.429Z,36.22
2023-03-07T19:36:29.293Z,37.33
2023-03-07T19:38:59.007Z,34.17
2023-03-07T19:41:27.558Z,33.45
2023-03-07T19:43:56.101Z,30.17
2023-03-07T19:46:23.010Z,33.30
2023-03-07T19:48:49.738Z,32.67
2023-03-07T19:51:22.555Z,36.17
2023-03-07T19:53:49.645Z,37.30
2023-03-07T19:56:23.568Z,37.30
2023-03-07T19:58:50.794Z,42.50
2023-03-07T20:01:20.062Z,35.55
2023-03-07T20:03:47.363Z,39.47
2023-03-07T20:06:19.968Z,39.25
2023-03-07T20:08:51.242Z,35.33
2023-03-07T20:11:20.496Z,50.25
2023-03-07T20:13:48.504Z,45.30
2023-03-07T20:16:17.020Z,44.10
2023-03-07T20:18:43.873Z,39.65
2023-03-07T20:21:14.707Z,40.78
2023-03-07T20:23:44.687Z,46.55
2023-03-07T20:26:14.089Z,47.03
2023-03-07T20:28:41.275Z,58.83
2023-03-07T20:31:09.729Z,58.72
2023-03-07T20:33:38.477Z,52.78
2023-03-07T20:36:06.940Z,51.72
2023-03-07T20:38:37.592Z,56.72
2023-03-07T20:41:06.583Z,55.88
2023-03-07T20:43:33.924Z,55.50
2023-03-07T20:46:13.028Z,51.05
2023-03-07T20:48:40.831Z,53.83
2023-03-07T20:51:18.846Z,52.15
2023-03-07T20:53:51.175Z,52.17
2023-03-07T20:56:18.552Z,49.17
2023-03-07T20:58:45.282Z,46.03
2023-03-07T21:01:15.105Z,53.60
2023-03-07T21:03:41.857Z,60.25
2023-03-07T21:06:08.404Z,63.50
2023-03-07T21:08:36.663Z,67.30
2023-03-07T21:11:05.993Z,61.10
2023-03-07T21:13:35.916Z,69.57
2023-03-07T21:16:09.953Z,69.63
2023-03-07T21:18:37.136Z,65.32
2023-03-07T21:21:06.283Z,62.20
2023-03-07T21:23:33.352Z,81.32
2023-03-07T21:26:08.551Z,75.20
2023-03-07T21:28:35.516Z,82.68
2023-03-07T21:31:04.753Z,81.80
2023-03-07T21:33:32.252Z,75.10
2023-03-07T21:35:58.843Z,81.05
2023-03-07T21:38:26.102Z,71.60
2023-03-07T21:40:55.809Z,62.47
2023-03-07T21:43:22.452Z,65.85
2023-03-07T21:45:49.128Z,60.45
2023-03-07T21:48:19.403Z,64.97
2023-03-07T21:50:48.193Z,67.20
2023-03-07T21:53:14.778Z,68.30
2023-03-07T21:55:49.401Z,73.30
2023-03-07T21:58:15.931Z,67.65
2023-03-07T22:00:43.150Z,74.43
2023-03-07T22:03:09.799Z,76.25
2023-03-07T22:05:39.855Z,79.57
2023-03-07T22:08:06.856Z,79.50
2023-03-07T22:10:33.759Z,80.25
2023-03-07T22:13:00.718Z,81.60
2023-03-07T22:15:27.720Z,81.10
2023-03-07T22:17:54.320Z,75.68
2023-03-07T22:20:20.859Z,77.93
2023-03-07T22:22:47.549Z,68.82
2023-03-07T22:25:14.300Z,70.55
2023-03-07T22:27:43.524Z,69.97
2023-03-07T22:30:11.109Z,69.38
2023-03-07T22:32:37.789Z,68.25
2023-03-07T22:35:04.674Z,73.13
2023-03-07T22:37:31.164Z,77.88
2023-03-07T22:39:57.736Z,79.15
2023-03-07T22:42:24.282Z,71.90
2023-03-07T22:44:50.760Z,76.63
2023-03-07T22:47:17.313Z,85.60
2023-03-07T22:49:44.095Z,76.20
2023-03-07T22:52:10.892Z,82.60
2023-03-07T22:54:39.370Z,77.80
2023-03-07T22:57:05.962Z,85.60
2023-03-07T22:59:33.108Z,76.68
2023-03-07T23:01:59.640Z,74.90
2023-03-07T23:04:27.155Z,72.88
2023-03-07T23:06:53.869Z,67.78
2023-03-07T23:09:20.432Z,67.60
2023-03-07T23:11:48.225Z,59.40
2023-03-07T23:14:15.638Z,57.78
2023-03-07T23:16:42.754Z,51.53
2023-03-07T23:19:09.370Z,48.85
2023-03-07T23:21:36.035Z,45.28
2023-03-07T23:24:03.794Z,48.38
2023-03-07T23:26:36.965Z,46.70
2023-03-07T23:29:05.742Z,51.10
2023-03-07T23:31:36.445Z,47.25
2023-03-07T23:34:06.608Z,46.75
2023-03-07T23:36:34.008Z,46.10
2023-03-07T23:39:00.847Z,41.83
2023-03-07T23:41:27.900Z,36.13
2023-03-07T23:43:59.549Z,32.25
2023-03-07T23:46:27.389Z,32.53
2023-03-07T23:48:55.098Z,31.20
2023-03-07T23:51:22.448Z,29.95
2023-03-07T23:53:49.266Z,30.67
2023-03-07T23:56:16.140Z,33.88
2023-03-07T23:58:44.057Z,32.92
